sensor_id;sensor_type;location;lat;lon;timestamp;temperature;humidity
16404;DHT22;8311;50.158;8.642;2022-08-26T00:01:39;27.70;41.80
16404;DHT22;8311;50.158;8.642;2022-08-26T00:04:36;27.70;41.80
16404;DHT22;8311;50.158;8.642;2022-08-26T00:07:30;27.70;41.80
16404;DHT22;8311;50.158;8.642;2022-08-26T00:10:23;27.80;41.80
16404;DHT22;8311;50.158;8.642;2022-08-26T00:13:18;27.70;41.70
16404;DHT22;8311;50.158;8.642;2022-08-26T00:16:12;27.70;41.70
16404;DHT22;8311;50.158;8.642;2022-08-26T00:19:05;27.70;41.70
16404;DHT22;8311;50.158;8.642;2022-08-26T00:21:59;27.70;41.60
16404;DHT22;8311;50.158;8.642;2022-08-26T00:24:52;27.70;41.70
16404;DHT22;8311;50.158;8.642;2022-08-26T00:27:46;27.70;41.70
16404;DHT22;8311;50.158;8.642;2022-08-26T00:30:40;27.70;41.70
16404;DHT22;8311;50.158;8.642;2022-08-26T00:33:34;27.70;41.70
16404;DHT22;8311;50.158;8.642;2022-08-26T00:36:28;27.70;41.70
16404;DHT22;8311;50.158;8.642;2022-08-26T00:39:21;27.70;41.70
16404;DHT22;8311;50.158;8.642;2022-08-26T00:42:15;27.70;41.80
16404;DHT22;8311;50.158;8.642;2022-08-26T00:45:09;27.70;41.80
16404;DHT22;8311;50.158;8.642;2022-08-26T00:48:04;27.70;41.80
16404;DHT22;8311;50.158;8.642;2022-08-26T00:51:03;27.60;41.70
16404;DHT22;8311;50.158;8.642;2022-08-26T00:54:01;27.70;41.80
16404;DHT22;8311;50.158;8.642;2022-08-26T00:56:58;27.60;41.80
16404;DHT22;8311;50.158;8.642;2022-08-26T00:59:54;27.60;41.80
16404;DHT22;8311;50.158;8.642;2022-08-26T01:02:49;27.60;41.80
16404;DHT22;8311;50.158;8.642;2022-08-26T01:05:42;27.60;41.70
16404;DHT22;8311;50.158;8.642;2022-08-26T01:08:38;27.60;41.60
16404;DHT22;8311;50.158;8.642;2022-08-26T01:11:33;27.60;41.60
16404;DHT22;8311;50.158;8.642;2022-08-26T01:14:30;27.60;41.60
16404;DHT22;8311;50.158;8.642;2022-08-26T01:17:24;27.60;41.60
16404;DHT22;8311;50.158;8.642;2022-08-26T01:20:24;27.60;41.50
16404;DHT22;8311;50.158;8.642;2022-08-26T01:23:19;27.60;41.50
16404;DHT22;8311;50.158;8.642;2022-08-26T01:26:16;27.60;41.60
16404;DHT22;8311;50.158;8.642;2022-08-26T01:29:15;27.60;41.50
16404;DHT22;8311;50.158;8.642;2022-08-26T01:32:15;27.60;41.50
16404;DHT22;8311;50.158;8.642;2022-08-26T01:35:09;27.60;41.50
16404;DHT22;8311;50.158;8.642;2022-08-26T01:38:04;27.60;41.50
16404;DHT22;8311;50.158;8.642;2022-08-26T01:41:00;27.60;41.50
16404;DHT22;8311;50.158;8.642;2022-08-26T01:44:11;27.50;41.50
16404;DHT22;8311;50.158;8.642;2022-08-26T01:47:06;27.50;41.50
16404;DHT22;8311;50.158;8.642;2022-08-26T01:50:05;27.50;41.60
16404;DHT22;8311;50.158;8.642;2022-08-26T01:53:02;27.50;41.50
16404;DHT22;8311;50.158;8.642;2022-08-26T01:56:00;27.50;41.50
16404;DHT22;8311;50.158;8.642;2022-08-26T01:58:56;27.50;41.50
16404;DHT22;8311;50.158;8.642;2022-08-26T02:01:51;27.50;41.60
16404;DHT22;8311;50.158;8.642;2022-08-26T02:04:48;27.50;41.60
16404;DHT22;8311;50.158;8.642;2022-08-26T02:07:43;27.50;41.50
16404;DHT22;8311;50.158;8.642;2022-08-26T02:10:37;27.50;41.60
16404;DHT22;8311;50.158;8.642;2022-08-26T02:13:36;27.50;41.60
16404;DHT22;8311;50.158;8.642;2022-08-26T02:16:35;27.50;41.60
16404;DHT22;8311;50.158;8.642;2022-08-26T02:19:36;27.50;41.60
16404;DHT22;8311;50.158;8.642;2022-08-26T02:22:31;27.50;41.60
16404;DHT22;8311;50.158;8.642;2022-08-26T02:25:30;27.50;41.70
16404;DHT22;8311;50.158;8.642;2022-08-26T02:28:26;27.50;41.70
16404;DHT22;8311;50.158;8.642;2022-08-26T02:31:23;27.50;41.70
16404;DHT22;8311;50.158;8.642;2022-08-26T02:34:21;27.50;41.80
16404;DHT22;8311;50.158;8.642;2022-08-26T02:37:19;27.40;41.70
16404;DHT22;8311;50.158;8.642;2022-08-26T02:40:17;27.40;41.70
16404;DHT22;8311;50.158;8.642;2022-08-26T02:43:12;27.40;41.70
16404;DHT22;8311;50.158;8.642;2022-08-26T02:46:06;27.40;41.80
16404;DHT22;8311;50.158;8.642;2022-08-26T02:49:00;27.40;41.80
16404;DHT22;8311;50.158;8.642;2022-08-26T02:51:57;27.40;41.80
16404;DHT22;8311;50.158;8.642;2022-08-26T02:54:53;27.40;41.80
16404;DHT22;8311;50.158;8.642;2022-08-26T02:57:46;27.40;41.80
16404;DHT22;8311;50.158;8.642;2022-08-26T03:00:39;27.40;41.80
16404;DHT22;8311;50.158;8.642;2022-08-26T03:03:45;27.40;41.80
16404;DHT22;8311;50.158;8.642;2022-08-26T03:06:42;27.40;41.80
16404;DHT22;8311;50.158;8.642;2022-08-26T03:09:43;27.40;41.90
16404;DHT22;8311;50.158;8.642;2022-08-26T03:12:36;27.40;41.90
16404;DHT22;8311;50.158;8.642;2022-08-26T03:15:29;27.40;42.00
16404;DHT22;8311;50.158;8.642;2022-08-26T03:18:23;27.40;42.00
16404;DHT22;8311;50.158;8.642;2022-08-26T03:21:17;27.40;42.00
16404;DHT22;8311;50.158;8.642;2022-08-26T03:24:11;27.40;42.10
16404;DHT22;8311;50.158;8.642;2022-08-26T03:27:05;27.40;42.00
16404;DHT22;8311;50.158;8.642;2022-08-26T03:29:58;27.40;42.10
16404;DHT22;8311;50.158;8.642;2022-08-26T03:33:10;27.40;42.10
16404;DHT22;8311;50.158;8.642;2022-08-26T03:36:04;27.30;42.10
16404;DHT22;8311;50.158;8.642;2022-08-26T03:38:58;27.40;42.20
16404;DHT22;8311;50.158;8.642;2022-08-26T03:41:53;27.30;42.10
16404;DHT22;8311;50.158;8.642;2022-08-26T03:44:48;27.30;42.10
16404;DHT22;8311;50.158;8.642;2022-08-26T03:47:45;27.30;42.10
16404;DHT22;8311;50.158;8.642;2022-08-26T03:50:41;27.30;42.00
16404;DHT22;8311;50.158;8.642;2022-08-26T03:53:34;27.30;42.00
16404;DHT22;8311;50.158;8.642;2022-08-26T03:56:27;27.40;42.10
16404;DHT22;8311;50.158;8.642;2022-08-26T03:59:21;27.30;42.00
16404;DHT22;8311;50.158;8.642;2022-08-26T04:02:16;27.30;42.10
16404;DHT22;8311;50.158;8.642;2022-08-26T04:05:09;27.40;42.20
16404;DHT22;8311;50.158;8.642;2022-08-26T04:08:04;27.30;42.20
16404;DHT22;8311;50.158;8.642;2022-08-26T04:10:58;27.30;42.30
16404;DHT22;8311;50.158;8.642;2022-08-26T04:13:52;27.30;42.30
16404;DHT22;8311;50.158;8.642;2022-08-26T04:16:47;27.30;42.30
16404;DHT22;8311;50.158;8.642;2022-08-26T04:19:41;27.30;42.30
16404;DHT22;8311;50.158;8.642;2022-08-26T04:22:34;27.30;42.30
16404;DHT22;8311;50.158;8.642;2022-08-26T04:25:27;27.30;42.30
16404;DHT22;8311;50.158;8.642;2022-08-26T04:28:20;27.30;42.40
16404;DHT22;8311;50.158;8.642;2022-08-26T04:31:16;27.30;42.40
16404;DHT22;8311;50.158;8.642;2022-08-26T04:34:11;27.30;42.40
16404;DHT22;8311;50.158;8.642;2022-08-26T04:37:06;27.30;42.50
16404;DHT22;8311;50.158;8.642;2022-08-26T04:39:59;27.30;42.50
16404;DHT22;8311;50.158;8.642;2022-08-26T04:42:53;27.30;42.50
16404;DHT22;8311;50.158;8.642;2022-08-26T04:45:46;27.30;42.50
16404;DHT22;8311;50.158;8.642;2022-08-26T04:48:39;27.30;42.50
16404;DHT22;8311;50.158;8.642;2022-08-26T04:51:34;27.30;42.60
16404;DHT22;8311;50.158;8.642;2022-08-26T04:54:30;27.20;42.50
16404;DHT22;8311;50.158;8.642;2022-08-26T04:57:23;27.20;42.50
16404;DHT22;8311;50.158;8.642;2022-08-26T05:00:16;27.30;42.60
16404;DHT22;8311;50.158;8.642;2022-08-26T05:03:09;27.30;42.70
16404;DHT22;8311;50.158;8.642;2022-08-26T05:06:04;27.20;42.70
16404;DHT22;8311;50.158;8.642;2022-08-26T05:09:01;27.20;42.70
16404;DHT22;8311;50.158;8.642;2022-08-26T05:11:54;27.20;42.80
16404;DHT22;8311;50.158;8.642;2022-08-26T05:14:47;27.20;42.90
16404;DHT22;8311;50.158;8.642;2022-08-26T05:17:40;27.20;42.90
16404;DHT22;8311;50.158;8.642;2022-08-26T05:20:38;27.20;43.00
16404;DHT22;8311;50.158;8.642;2022-08-26T05:23:34;27.20;43.00
16404;DHT22;8311;50.158;8.642;2022-08-26T05:26:30;27.20;43.00
16404;DHT22;8311;50.158;8.642;2022-08-26T05:29:24;27.20;43.00
16404;DHT22;8311;50.158;8.642;2022-08-26T05:32:17;27.20;43.10
16404;DHT22;8311;50.158;8.642;2022-08-26T05:35:11;27.20;43.10
16404;DHT22;8311;50.158;8.642;2022-08-26T05:38:08;27.20;43.10
16404;DHT22;8311;50.158;8.642;2022-08-26T05:41:11;27.20;43.20
16404;DHT22;8311;50.158;8.642;2022-08-26T05:44:11;27.20;43.30
16404;DHT22;8311;50.158;8.642;2022-08-26T05:47:05;27.20;43.30
16404;DHT22;8311;50.158;8.642;2022-08-26T05:49:59;27.20;43.30
16404;DHT22;8311;50.158;8.642;2022-08-26T05:52:56;27.20;43.40
16404;DHT22;8311;50.158;8.642;2022-08-26T05:55:50;27.20;43.40
16404;DHT22;8311;50.158;8.642;2022-08-26T05:58:45;27.20;43.40
16404;DHT22;8311;50.158;8.642;2022-08-26T06:01:41;27.20;43.40
16404;DHT22;8311;50.158;8.642;2022-08-26T06:04:35;27.20;43.40
16404;DHT22;8311;50.158;8.642;2022-08-26T06:07:28;27.20;43.40
16404;DHT22;8311;50.158;8.642;2022-08-26T06:10:42;27.20;43.50
16404;DHT22;8311;50.158;8.642;2022-08-26T06:13:37;27.20;43.50
16404;DHT22;8311;50.158;8.642;2022-08-26T06:16:31;27.20;43.60
16404;DHT22;8311;50.158;8.642;2022-08-26T06:19:26;27.20;43.50
16404;DHT22;8311;50.158;8.642;2022-08-26T06:22:25;27.20;43.50
16404;DHT22;8311;50.158;8.642;2022-08-26T06:25:37;27.20;43.40
16404;DHT22;8311;50.158;8.642;2022-08-26T06:28:31;27.20;43.40
16404;DHT22;8311;50.158;8.642;2022-08-26T06:31:25;27.20;43.30
16404;DHT22;8311;50.158;8.642;2022-08-26T06:34:21;27.20;44.00
16404;DHT22;8311;50.158;8.642;2022-08-26T06:37:22;27.20;44.10
16404;DHT22;8311;50.158;8.642;2022-08-26T06:40:16;27.10;43.50
16404;DHT22;8311;50.158;8.642;2022-08-26T06:43:09;27.20;43.60
16404;DHT22;8311;50.158;8.642;2022-08-26T06:46:05;27.20;43.60
16404;DHT22;8311;50.158;8.642;2022-08-26T06:48:59;27.20;43.50
16404;DHT22;8311;50.158;8.642;2022-08-26T06:51:53;27.20;43.50
16404;DHT22;8311;50.158;8.642;2022-08-26T06:54:49;27.20;43.50
16404;DHT22;8311;50.158;8.642;2022-08-26T06:57:42;27.20;43.50
16404;DHT22;8311;50.158;8.642;2022-08-26T07:00:37;27.20;44.20
16404;DHT22;8311;50.158;8.642;2022-08-26T07:03:32;27.20;43.50
16404;DHT22;8311;50.158;8.642;2022-08-26T07:06:35;27.20;43.50
16404;DHT22;8311;50.158;8.642;2022-08-26T07:09:29;27.20;43.40
16404;DHT22;8311;50.158;8.642;2022-08-26T07:12:25;27.20;43.50
16404;DHT22;8311;50.158;8.642;2022-08-26T07:15:18;27.20;43.40
16404;DHT22;8311;50.158;8.642;2022-08-26T07:18:21;27.20;43.40
16404;DHT22;8311;50.158;8.642;2022-08-26T07:21:15;27.20;43.40
16404;DHT22;8311;50.158;8.642;2022-08-26T07:24:09;27.20;43.40
16404;DHT22;8311;50.158;8.642;2022-08-26T07:27:08;27.20;43.40
16404;DHT22;8311;50.158;8.642;2022-08-26T07:30:05;27.20;43.40
16404;DHT22;8311;50.158;8.642;2022-08-26T07:32:58;27.20;43.40
16404;DHT22;8311;50.158;8.642;2022-08-26T07:35:51;27.20;43.40
16404;DHT22;8311;50.158;8.642;2022-08-26T07:38:45;27.20;43.40
16404;DHT22;8311;50.158;8.642;2022-08-26T07:41:39;27.20;43.30
16404;DHT22;8311;50.158;8.642;2022-08-26T07:44:34;27.20;43.30
16404;DHT22;8311;50.158;8.642;2022-08-26T07:47:29;27.20;43.30
16404;DHT22;8311;50.158;8.642;2022-08-26T07:50:23;27.20;43.30
16404;DHT22;8311;50.158;8.642;2022-08-26T07:53:36;27.20;43.20
16404;DHT22;8311;50.158;8.642;2022-08-26T07:56:30;27.20;43.40
16404;DHT22;8311;50.158;8.642;2022-08-26T07:59:23;27.20;43.30
16404;DHT22;8311;50.158;8.642;2022-08-26T08:02:17;27.20;44.10
16404;DHT22;8311;50.158;8.642;2022-08-26T08:05:12;27.20;44.20
16404;DHT22;8311;50.158;8.642;2022-08-26T08:08:08;27.20;44.50
16404;DHT22;8311;50.158;8.642;2022-08-26T08:11:20;27.30;44.50
16404;DHT22;8311;50.158;8.642;2022-08-26T08:14:13;27.40;45.40
16404;DHT22;8311;50.158;8.642;2022-08-26T08:17:08;27.40;44.70
16404;DHT22;8311;50.158;8.642;2022-08-26T08:20:07;27.40;44.90
16404;DHT22;8311;50.158;8.642;2022-08-26T08:23:03;27.50;45.20
16404;DHT22;8311;50.158;8.642;2022-08-26T08:26:03;27.60;45.10
16404;DHT22;8311;50.158;8.642;2022-08-26T08:28:59;27.60;45.00
16404;DHT22;8311;50.158;8.642;2022-08-26T08:31:53;27.60;45.00
16404;DHT22;8311;50.158;8.642;2022-08-26T08:34:48;27.70;45.10
16404;DHT22;8311;50.158;8.642;2022-08-26T08:37:42;27.70;45.00
16404;DHT22;8311;50.158;8.642;2022-08-26T08:40:40;27.80;45.10
16404;DHT22;8311;50.158;8.642;2022-08-26T08:43:38;27.90;45.00
16404;DHT22;8311;50.158;8.642;2022-08-26T08:46:32;27.90;44.90
16404;DHT22;8311;50.158;8.642;2022-08-26T08:49:29;28.00;44.80
16404;DHT22;8311;50.158;8.642;2022-08-26T08:52:27;28.00;44.70
16404;DHT22;8311;50.158;8.642;2022-08-26T08:55:25;28.10;44.80
16404;DHT22;8311;50.158;8.642;2022-08-26T08:58:34;28.10;44.90
16404;DHT22;8311;50.158;8.642;2022-08-26T09:01:40;28.10;45.10
16404;DHT22;8311;50.158;8.642;2022-08-26T09:04:56;28.10;44.90
16404;DHT22;8311;50.158;8.642;2022-08-26T09:07:56;28.20;45.00
16404;DHT22;8311;50.158;8.642;2022-08-26T09:10:53;28.20;45.10
16404;DHT22;8311;50.158;8.642;2022-08-26T09:13:52;28.20;44.90
16404;DHT22;8311;50.158;8.642;2022-08-26T09:16:50;28.20;44.80
16404;DHT22;8311;50.158;8.642;2022-08-26T09:19:51;28.20;44.90
16404;DHT22;8311;50.158;8.642;2022-08-26T09:22:44;28.20;45.00
16404;DHT22;8311;50.158;8.642;2022-08-26T09:25:45;28.20;45.00
16404;DHT22;8311;50.158;8.642;2022-08-26T09:28:41;28.10;45.30
16404;DHT22;8311;50.158;8.642;2022-08-26T09:31:38;28.10;45.30
16404;DHT22;8311;50.158;8.642;2022-08-26T09:34:32;28.10;45.30
16404;DHT22;8311;50.158;8.642;2022-08-26T09:37:37;28.10;45.20
16404;DHT22;8311;50.158;8.642;2022-08-26T09:40:33;28.10;45.30
16404;DHT22;8311;50.158;8.642;2022-08-26T09:43:27;28.10;45.30
16404;DHT22;8311;50.158;8.642;2022-08-26T09:46:24;28.00;45.40
16404;DHT22;8311;50.158;8.642;2022-08-26T09:49:26;28.00;45.20
16404;DHT22;8311;50.158;8.642;2022-08-26T09:52:25;28.00;45.30
16404;DHT22;8311;50.158;8.642;2022-08-26T09:55:21;28.00;45.30
16404;DHT22;8311;50.158;8.642;2022-08-26T09:58:30;28.00;45.50
16404;DHT22;8311;50.158;8.642;2022-08-26T10:01:30;27.90;45.40
16404;DHT22;8311;50.158;8.642;2022-08-26T10:04:26;27.90;45.40
16404;DHT22;8311;50.158;8.642;2022-08-26T10:07:36;28.00;45.60
16404;DHT22;8311;50.158;8.642;2022-08-26T10:10:34;28.00;45.80
16404;DHT22;8311;50.158;8.642;2022-08-26T10:13:33;28.00;45.70
16404;DHT22;8311;50.158;8.642;2022-08-26T10:16:33;28.10;45.50
16404;DHT22;8311;50.158;8.642;2022-08-26T10:19:35;28.10;45.40
16404;DHT22;8311;50.158;8.642;2022-08-26T10:22:52;28.10;45.40
16404;DHT22;8311;50.158;8.642;2022-08-26T10:25:51;28.00;45.40
16404;DHT22;8311;50.158;8.642;2022-08-26T10:28:53;28.00;45.50
16404;DHT22;8311;50.158;8.642;2022-08-26T10:31:51;28.00;45.30
16404;DHT22;8311;50.158;8.642;2022-08-26T10:34:56;28.00;45.40
16404;DHT22;8311;50.158;8.642;2022-08-26T10:37:52;28.00;45.40
16404;DHT22;8311;50.158;8.642;2022-08-26T10:40:51;27.90;45.40
16404;DHT22;8311;50.158;8.642;2022-08-26T10:43:49;27.90;45.50
16404;DHT22;8311;50.158;8.642;2022-08-26T10:46:49;27.90;45.50
16404;DHT22;8311;50.158;8.642;2022-08-26T10:49:46;27.90;45.60
16404;DHT22;8311;50.158;8.642;2022-08-26T10:52:51;27.90;45.80
16404;DHT22;8311;50.158;8.642;2022-08-26T10:55:54;28.00;46.00
16404;DHT22;8311;50.158;8.642;2022-08-26T10:58:56;27.90;45.80
16404;DHT22;8311;50.158;8.642;2022-08-26T11:01:58;28.00;45.80
16404;DHT22;8311;50.158;8.642;2022-08-26T11:04:56;28.10;45.80
16404;DHT22;8311;50.158;8.642;2022-08-26T11:08:28;28.10;45.80
16404;DHT22;8311;50.158;8.642;2022-08-26T11:11:43;28.20;45.70
16404;DHT22;8311;50.158;8.642;2022-08-26T11:14:38;28.20;45.60
16404;DHT22;8311;50.158;8.642;2022-08-26T11:17:55;28.20;45.60
16404;DHT22;8311;50.158;8.642;2022-08-26T11:20:51;28.30;45.70
16404;DHT22;8311;50.158;8.642;2022-08-26T11:23:46;28.30;45.50
16404;DHT22;8311;50.158;8.642;2022-08-26T11:26:42;28.40;45.60
16404;DHT22;8311;50.158;8.642;2022-08-26T11:30:00;28.40;46.20
16404;DHT22;8311;50.158;8.642;2022-08-26T11:32:55;28.40;45.70
16404;DHT22;8311;50.158;8.642;2022-08-26T11:35:50;28.40;45.80
16404;DHT22;8311;50.158;8.642;2022-08-26T11:38:43;28.40;45.80
16404;DHT22;8311;50.158;8.642;2022-08-26T11:41:41;28.40;45.70
16404;DHT22;8311;50.158;8.642;2022-08-26T11:44:38;28.40;45.80
16404;DHT22;8311;50.158;8.642;2022-08-26T11:47:40;28.30;45.80
16404;DHT22;8311;50.158;8.642;2022-08-26T11:50:33;28.30;45.70
16404;DHT22;8311;50.158;8.642;2022-08-26T11:53:27;28.30;45.80
16404;DHT22;8311;50.158;8.642;2022-08-26T11:56:27;28.30;45.80
16404;DHT22;8311;50.158;8.642;2022-08-26T11:59:28;28.30;46.00
16404;DHT22;8311;50.158;8.642;2022-08-26T12:02:27;28.20;45.90
16404;DHT22;8311;50.158;8.642;2022-08-26T12:05:26;28.20;46.00
16404;DHT22;8311;50.158;8.642;2022-08-26T12:08:25;28.20;46.00
16404;DHT22;8311;50.158;8.642;2022-08-26T12:11:22;28.20;46.00
16404;DHT22;8311;50.158;8.642;2022-08-26T12:14:18;28.20;46.10
16404;DHT22;8311;50.158;8.642;2022-08-26T12:17:16;28.20;46.20
16404;DHT22;8311;50.158;8.642;2022-08-26T12:20:18;28.10;46.20
16404;DHT22;8311;50.158;8.642;2022-08-26T12:23:23;28.20;46.20
16404;DHT22;8311;50.158;8.642;2022-08-26T12:26:23;28.10;46.10
16404;DHT22;8311;50.158;8.642;2022-08-26T12:29:23;28.10;46.10
16404;DHT22;8311;50.158;8.642;2022-08-26T12:32:23;28.10;46.20
16404;DHT22;8311;50.158;8.642;2022-08-26T12:35:19;28.10;46.30
16404;DHT22;8311;50.158;8.642;2022-08-26T12:38:13;28.10;46.40
16404;DHT22;8311;50.158;8.642;2022-08-26T12:41:06;28.10;46.50
16404;DHT22;8311;50.158;8.642;2022-08-26T12:44:00;28.10;46.50
16404;DHT22;8311;50.158;8.642;2022-08-26T12:47:00;28.10;46.70
16404;DHT22;8311;50.158;8.642;2022-08-26T12:50:05;28.10;46.40
16404;DHT22;8311;50.158;8.642;2022-08-26T12:53:00;28.10;46.60
16404;DHT22;8311;50.158;8.642;2022-08-26T12:55:56;28.20;46.40
16404;DHT22;8311;50.158;8.642;2022-08-26T12:59:05;28.20;46.50
16404;DHT22;8311;50.158;8.642;2022-08-26T13:01:59;28.20;46.50
16404;DHT22;8311;50.158;8.642;2022-08-26T13:04:56;28.20;46.30
16404;DHT22;8311;50.158;8.642;2022-08-26T13:08:12;28.20;46.10
16404;DHT22;8311;50.158;8.642;2022-08-26T13:11:10;28.20;46.10
16404;DHT22;8311;50.158;8.642;2022-08-26T13:14:07;28.20;46.10
16404;DHT22;8311;50.158;8.642;2022-08-26T13:17:00;28.20;46.00
16404;DHT22;8311;50.158;8.642;2022-08-26T13:19:54;28.20;46.00
16404;DHT22;8311;50.158;8.642;2022-08-26T13:22:54;28.20;45.90
16404;DHT22;8311;50.158;8.642;2022-08-26T13:25:51;28.20;45.90
16404;DHT22;8311;50.158;8.642;2022-08-26T13:28:45;28.20;45.80
16404;DHT22;8311;50.158;8.642;2022-08-26T13:31:53;28.20;45.80
16404;DHT22;8311;50.158;8.642;2022-08-26T13:34:50;28.20;45.70
16404;DHT22;8311;50.158;8.642;2022-08-26T13:37:45;28.20;45.70
16404;DHT22;8311;50.158;8.642;2022-08-26T13:40:38;28.20;45.70
16404;DHT22;8311;50.158;8.642;2022-08-26T13:43:33;28.20;45.60
16404;DHT22;8311;50.158;8.642;2022-08-26T13:46:27;28.20;45.70
16404;DHT22;8311;50.158;8.642;2022-08-26T13:49:21;28.20;45.70
16404;DHT22;8311;50.158;8.642;2022-08-26T13:52:15;28.20;45.70
16404;DHT22;8311;50.158;8.642;2022-08-26T13:55:20;28.20;45.60
16404;DHT22;8311;50.158;8.642;2022-08-26T13:58:14;28.20;45.60
16404;DHT22;8311;50.158;8.642;2022-08-26T14:01:09;28.20;45.60
16404;DHT22;8311;50.158;8.642;2022-08-26T14:04:03;28.20;45.70
16404;DHT22;8311;50.158;8.642;2022-08-26T14:06:56;28.10;45.60
16404;DHT22;8311;50.158;8.642;2022-08-26T14:09:50;28.10;45.50
16404;DHT22;8311;50.158;8.642;2022-08-26T14:12:43;28.10;45.60
16404;DHT22;8311;50.158;8.642;2022-08-26T14:15:37;28.10;45.60
16404;DHT22;8311;50.158;8.642;2022-08-26T14:18:34;28.10;45.60
16404;DHT22;8311;50.158;8.642;2022-08-26T14:21:34;28.10;45.60
16404;DHT22;8311;50.158;8.642;2022-08-26T14:24:28;28.10;45.60
16404;DHT22;8311;50.158;8.642;2022-08-26T14:27:21;28.10;45.60
16404;DHT22;8311;50.158;8.642;2022-08-26T14:30:16;28.00;45.50
16404;DHT22;8311;50.158;8.642;2022-08-26T14:33:11;28.00;45.40
16404;DHT22;8311;50.158;8.642;2022-08-26T14:36:06;28.00;45.50
16404;DHT22;8311;50.158;8.642;2022-08-26T14:39:16;28.00;45.40
16404;DHT22;8311;50.158;8.642;2022-08-26T14:42:20;28.00;45.20
16404;DHT22;8311;50.158;8.642;2022-08-26T14:45:17;28.00;45.80
16404;DHT22;8311;50.158;8.642;2022-08-26T14:48:11;28.00;45.00
16404;DHT22;8311;50.158;8.642;2022-08-26T14:51:06;28.00;45.10
16404;DHT22;8311;50.158;8.642;2022-08-26T14:54:00;28.00;45.00
16404;DHT22;8311;50.158;8.642;2022-08-26T14:57:09;27.90;45.00
16404;DHT22;8311;50.158;8.642;2022-08-26T15:00:07;27.90;44.80
16404;DHT22;8311;50.158;8.642;2022-08-26T15:03:01;27.90;44.60
16404;DHT22;8311;50.158;8.642;2022-08-26T15:05:55;27.90;44.80
16404;DHT22;8311;50.158;8.642;2022-08-26T15:08:50;27.90;44.90
16404;DHT22;8311;50.158;8.642;2022-08-26T15:11:43;27.90;44.90
16404;DHT22;8311;50.158;8.642;2022-08-26T15:14:39;27.90;44.90
16404;DHT22;8311;50.158;8.642;2022-08-26T15:17:32;27.90;45.00
16404;DHT22;8311;50.158;8.642;2022-08-26T15:20:24;27.90;45.00
16404;DHT22;8311;50.158;8.642;2022-08-26T15:23:18;27.90;45.10
16404;DHT22;8311;50.158;8.642;2022-08-26T15:26:14;27.90;45.30
16404;DHT22;8311;50.158;8.642;2022-08-26T15:29:07;27.90;45.50
16404;DHT22;8311;50.158;8.642;2022-08-26T15:32:00;27.90;45.50
16404;DHT22;8311;50.158;8.642;2022-08-26T15:34:53;27.90;45.80
16404;DHT22;8311;50.158;8.642;2022-08-26T15:37:46;27.90;45.70
16404;DHT22;8311;50.158;8.642;2022-08-26T15:40:40;27.90;46.10
16404;DHT22;8311;50.158;8.642;2022-08-26T15:43:35;27.90;46.40
16404;DHT22;8311;50.158;8.642;2022-08-26T15:46:30;27.90;46.40
16404;DHT22;8311;50.158;8.642;2022-08-26T15:49:23;27.90;46.50
16404;DHT22;8311;50.158;8.642;2022-08-26T15:52:16;27.90;46.50
16404;DHT22;8311;50.158;8.642;2022-08-26T15:55:10;27.90;46.70
16404;DHT22;8311;50.158;8.642;2022-08-26T15:58:03;27.90;46.80
16404;DHT22;8311;50.158;8.642;2022-08-26T16:00:57;27.90;46.80
16404;DHT22;8311;50.158;8.642;2022-08-26T16:03:51;27.90;46.70
16404;DHT22;8311;50.158;8.642;2022-08-26T16:06:46;27.90;46.90
16404;DHT22;8311;50.158;8.642;2022-08-26T16:09:41;27.90;47.00
16404;DHT22;8311;50.158;8.642;2022-08-26T16:12:35;27.90;47.10
16404;DHT22;8311;50.158;8.642;2022-08-26T16:15:28;27.90;47.30
16404;DHT22;8311;50.158;8.642;2022-08-26T16:18:22;27.90;47.20
16404;DHT22;8311;50.158;8.642;2022-08-26T16:21:18;27.90;47.10
16404;DHT22;8311;50.158;8.642;2022-08-26T16:24:13;27.90;47.30
16404;DHT22;8311;50.158;8.642;2022-08-26T16:27:07;27.90;47.30
16404;DHT22;8311;50.158;8.642;2022-08-26T16:30:03;27.90;47.60
16404;DHT22;8311;50.158;8.642;2022-08-26T16:32:57;27.90;47.40
16404;DHT22;8311;50.158;8.642;2022-08-26T16:35:53;27.90;47.20
16404;DHT22;8311;50.158;8.642;2022-08-26T16:38:48;27.90;47.50
16404;DHT22;8311;50.158;8.642;2022-08-26T16:41:45;27.90;47.40
16404;DHT22;8311;50.158;8.642;2022-08-26T16:44:38;27.90;47.40
16404;DHT22;8311;50.158;8.642;2022-08-26T16:47:36;27.90;48.00
16404;DHT22;8311;50.158;8.642;2022-08-26T16:50:30;27.90;47.20
16404;DHT22;8311;50.158;8.642;2022-08-26T16:53:25;27.90;47.10
16404;DHT22;8311;50.158;8.642;2022-08-26T16:56:20;27.90;47.20
16404;DHT22;8311;50.158;8.642;2022-08-26T16:59:25;27.90;47.10
16404;DHT22;8311;50.158;8.642;2022-08-26T17:02:19;27.90;47.20
16404;DHT22;8311;50.158;8.642;2022-08-26T17:05:12;27.90;46.90
16404;DHT22;8311;50.158;8.642;2022-08-26T17:08:06;27.90;47.00
16404;DHT22;8311;50.158;8.642;2022-08-26T17:11:01;27.90;46.80
16404;DHT22;8311;50.158;8.642;2022-08-26T17:13:55;27.90;46.70
16404;DHT22;8311;50.158;8.642;2022-08-26T17:16:48;27.90;46.70
16404;DHT22;8311;50.158;8.642;2022-08-26T17:19:44;27.90;46.80
16404;DHT22;8311;50.158;8.642;2022-08-26T17:22:39;27.90;46.70
16404;DHT22;8311;50.158;8.642;2022-08-26T17:25:33;27.90;46.60
16404;DHT22;8311;50.158;8.642;2022-08-26T17:28:28;27.90;46.50
16404;DHT22;8311;50.158;8.642;2022-08-26T17:31:23;27.90;46.60
16404;DHT22;8311;50.158;8.642;2022-08-26T17:34:19;27.90;46.50
16404;DHT22;8311;50.158;8.642;2022-08-26T17:37:13;27.90;46.50
16404;DHT22;8311;50.158;8.642;2022-08-26T17:40:10;27.90;46.60
16404;DHT22;8311;50.158;8.642;2022-08-26T17:43:04;27.90;46.60
16404;DHT22;8311;50.158;8.642;2022-08-26T17:46:06;27.90;46.50
16404;DHT22;8311;50.158;8.642;2022-08-26T17:49:00;27.90;46.50
16404;DHT22;8311;50.158;8.642;2022-08-26T17:51:56;27.90;46.40
16404;DHT22;8311;50.158;8.642;2022-08-26T17:54:51;27.90;46.40
16404;DHT22;8311;50.158;8.642;2022-08-26T17:57:44;27.90;46.40
16404;DHT22;8311;50.158;8.642;2022-08-26T18:00:46;27.90;46.40
16404;DHT22;8311;50.158;8.642;2022-08-26T18:03:41;27.90;46.90
16404;DHT22;8311;50.158;8.642;2022-08-26T18:06:35;27.60;48.90
16404;DHT22;8311;50.158;8.642;2022-08-26T18:09:30;27.50;49.30
16404;DHT22;8311;50.158;8.642;2022-08-26T18:12:24;27.40;49.70
16404;DHT22;8311;50.158;8.642;2022-08-26T18:15:18;27.40;49.60
16404;DHT22;8311;50.158;8.642;2022-08-26T18:18:12;27.40;49.70
16404;DHT22;8311;50.158;8.642;2022-08-26T18:21:12;27.40;49.80
16404;DHT22;8311;50.158;8.642;2022-08-26T18:24:06;27.30;50.00
16404;DHT22;8311;50.158;8.642;2022-08-26T18:27:05;27.30;50.80
16404;DHT22;8311;50.158;8.642;2022-08-26T18:29:58;27.20;50.20
16404;DHT22;8311;50.158;8.642;2022-08-26T18:32:51;27.20;50.10
16404;DHT22;8311;50.158;8.642;2022-08-26T18:35:45;27.10;50.30
16404;DHT22;8311;50.158;8.642;2022-08-26T18:38:40;27.20;50.10
16404;DHT22;8311;50.158;8.642;2022-08-26T18:41:39;27.10;50.40
16404;DHT22;8311;50.158;8.642;2022-08-26T18:44:33;27.10;50.30
16404;DHT22;8311;50.158;8.642;2022-08-26T18:47:26;27.10;50.00
16404;DHT22;8311;50.158;8.642;2022-08-26T18:50:21;27.10;50.30
16404;DHT22;8311;50.158;8.642;2022-08-26T18:53:15;27.10;50.20